sensor_id;sensor_type;location;lat;lon;timestamp;P1;durP1;ratioP1;P2;durP2;ratioP2
10896;SDS011;5501;51.176;6.470;2023-12-20T00:01:54;10.20;;;4.85;;
10896;SDS011;5501;51.176;6.470;2023-12-20T00:06:56;9.93;;;5.20;;
10896;SDS011;5501;51.176;6.470;2023-12-20T00:11:58;8.45;;;4.43;;
10896;SDS011;5501;51.176;6.470;2023-12-20T00:17:00;7.50;;;4.35;;
10896;SDS011;5501;51.176;6.470;2023-12-20T00:22:02;6.88;;;3.53;;
10896;SDS011;5501;51.176;6.470;2023-12-20T00:27:04;8.32;;;4.35;;
10896;SDS011;5501;51.176;6.470;2023-12-20T00:32:06;16.75;;;6.18;;
10896;SDS011;5501;51.176;6.470;2023-12-20T00:37:08;12.25;;;5.50;;
10896;SDS011;5501;51.176;6.470;2023-12-20T00:42:09;10.05;;;5.88;;
10896;SDS011;5501;51.176;6.470;2023-12-20T00:47:11;13.07;;;7.10;;
10896;SDS011;5501;51.176;6.470;2023-12-20T00:52:14;10.52;;;6.18;;
10896;SDS011;5501;51.176;6.470;2023-12-20T00:57:18;11.35;;;5.85;;
10896;SDS011;5501;51.176;6.470;2023-12-20T01:02:20;7.20;;;5.07;;
10896;SDS011;5501;51.176;6.470;2023-12-20T01:07:23;13.93;;;6.75;;
10896;SDS011;5501;51.176;6.470;2023-12-20T01:12:25;20.17;;;6.63;;
10896;SDS011;5501;51.176;6.470;2023-12-20T01:17:29;10.57;;;5.75;;
10896;SDS011;5501;51.176;6.470;2023-12-20T01:22:31;15.52;;;5.15;;
10896;SDS011;5501;51.176;6.470;2023-12-20T01:27:33;12.38;;;5.68;;
10896;SDS011;5501;51.176;6.470;2023-12-20T01:32:34;7.75;;;5.15;;
10896;SDS011;5501;51.176;6.470;2023-12-20T01:37:36;17.30;;;5.43;;
10896;SDS011;5501;51.176;6.470;2023-12-20T01:42:38;14.38;;;4.93;;
10896;SDS011;5501;51.176;6.470;2023-12-20T01:47:40;11.82;;;4.20;;
10896;SDS011;5501;51.176;6.470;2023-12-20T01:52:43;9.02;;;2.75;;
10896;SDS011;5501;51.176;6.470;2023-12-20T01:57:45;10.70;;;3.45;;
10896;SDS011;5501;51.176;6.470;2023-12-20T02:02:49;9.05;;;2.53;;
10896;SDS011;5501;51.176;6.470;2023-12-20T02:07:52;7.50;;;2.65;;
10896;SDS011;5501;51.176;6.470;2023-12-20T02:12:54;9.50;;;2.72;;
10896;SDS011;5501;51.176;6.470;2023-12-20T02:17:56;3.60;;;2.58;;
10896;SDS011;5501;51.176;6.470;2023-12-20T02:22:58;7.22;;;1.95;;
10896;SDS011;5501;51.176;6.470;2023-12-20T02:28:00;5.00;;;2.88;;
10896;SDS011;5501;51.176;6.470;2023-12-20T02:33:03;9.07;;;2.28;;
10896;SDS011;5501;51.176;6.470;2023-12-20T02:38:10;10.60;;;2.95;;
10896;SDS011;5501;51.176;6.470;2023-12-20T02:43:12;9.05;;;3.05;;
10896;SDS011;5501;51.176;6.470;2023-12-20T02:48:14;5.93;;;2.03;;
10896;SDS011;5501;51.176;6.470;2023-12-20T02:53:15;9.23;;;2.38;;
10896;SDS011;5501;51.176;6.470;2023-12-20T02:58:17;6.82;;;2.38;;
10896;SDS011;5501;51.176;6.470;2023-12-20T03:03:19;3.08;;;2.05;;
10896;SDS011;5501;51.176;6.470;2023-12-20T03:08:21;5.95;;;2.38;;
10896;SDS011;5501;51.176;6.470;2023-12-20T03:13:22;3.22;;;2.45;;
10896;SDS011;5501;51.176;6.470;2023-12-20T03:18:24;23.70;;;3.45;;
10896;SDS011;5501;51.176;6.470;2023-12-20T03:23:25;12.38;;;2.85;;
10896;SDS011;5501;51.176;6.470;2023-12-20T03:28:29;8.15;;;1.70;;
10896;SDS011;5501;51.176;6.470;2023-12-20T03:33:30;14.73;;;3.00;;
10896;SDS011;5501;51.176;6.470;2023-12-20T03:38:32;3.28;;;1.98;;
10896;SDS011;5501;51.176;6.470;2023-12-20T03:43:34;2.55;;;2.33;;
10896;SDS011;5501;51.176;6.470;2023-12-20T03:48:35;9.02;;;2.63;;
10896;SDS011;5501;51.176;6.470;2023-12-20T03:53:37;12.65;;;2.53;;
10896;SDS011;5501;51.176;6.470;2023-12-20T03:58:39;9.25;;;2.85;;
10896;SDS011;5501;51.176;6.470;2023-12-20T04:03:40;12.43;;;2.67;;
10896;SDS011;5501;51.176;6.470;2023-12-20T04:08:42;9.48;;;2.50;;
10896;SDS011;5501;51.176;6.470;2023-12-20T04:13:44;7.63;;;2.35;;
10896;SDS011;5501;51.176;6.470;2023-12-20T04:18:45;14.50;;;3.20;;
10896;SDS011;5501;51.176;6.470;2023-12-20T04:23:47;12.90;;;3.10;;
10896;SDS011;5501;51.176;6.470;2023-12-20T04:28:48;6.38;;;3.05;;
10896;SDS011;5501;51.176;6.470;2023-12-20T04:33:52;13.82;;;2.35;;
10896;SDS011;5501;51.176;6.470;2023-12-20T04:38:54;8.20;;;3.15;;
10896;SDS011;5501;51.176;6.470;2023-12-20T04:43:55;7.75;;;2.20;;
10896;SDS011;5501;51.176;6.470;2023-12-20T04:48:57;12.70;;;3.00;;
10896;SDS011;5501;51.176;6.470;2023-12-20T04:53:59;16.02;;;3.47;;
10896;SDS011;5501;51.176;6.470;2023-12-20T04:59:00;15.52;;;3.70;;
10896;SDS011;5501;51.176;6.470;2023-12-20T05:04:02;19.58;;;3.38;;
10896;SDS011;5501;51.176;6.470;2023-12-20T05:09:03;11.10;;;2.28;;
10896;SDS011;5501;51.176;6.470;2023-12-20T05:14:05;14.30;;;3.15;;
10896;SDS011;5501;51.176;6.470;2023-12-20T05:19:06;9.23;;;3.08;;
10896;SDS011;5501;51.176;6.470;2023-12-20T05:24:08;13.18;;;3.58;;
10896;SDS011;5501;51.176;6.470;2023-12-20T05:29:10;10.23;;;2.65;;
10896;SDS011;5501;51.176;6.470;2023-12-20T05:34:11;8.02;;;2.90;;
10896;SDS011;5501;51.176;6.470;2023-12-20T05:39:13;10.35;;;3.45;;
10896;SDS011;5501;51.176;6.470;2023-12-20T05:44:15;6.68;;;2.65;;
10896;SDS011;5501;51.176;6.470;2023-12-20T05:49:16;13.13;;;4.07;;
10896;SDS011;5501;51.176;6.470;2023-12-20T05:54:18;13.07;;;3.80;;
10896;SDS011;5501;51.176;6.470;2023-12-20T05:59:22;12.95;;;3.13;;
10896;SDS011;5501;51.176;6.470;2023-12-20T06:04:24;12.48;;;3.63;;
10896;SDS011;5501;51.176;6.470;2023-12-20T06:09:29;8.52;;;3.17;;
10896;SDS011;5501;51.176;6.470;2023-12-20T06:14:32;14.60;;;4.47;;
10896;SDS011;5501;51.176;6.470;2023-12-20T06:19:34;9.32;;;2.67;;
10896;SDS011;5501;51.176;6.470;2023-12-20T06:24:35;12.73;;;3.50;;
10896;SDS011;5501;51.176;6.470;2023-12-20T06:29:37;8.48;;;3.13;;
10896;SDS011;5501;51.176;6.470;2023-12-20T06:34:38;17.80;;;4.82;;
10896;SDS011;5501;51.176;6.470;2023-12-20T06:39:40;12.43;;;3.67;;
10896;SDS011;5501;51.176;6.470;2023-12-20T06:44:42;22.38;;;3.90;;
10896;SDS011;5501;51.176;6.470;2023-12-20T06:49:43;13.65;;;2.70;;
10896;SDS011;5501;51.176;6.470;2023-12-20T06:54:45;9.75;;;3.40;;
10896;SDS011;5501;51.176;6.470;2023-12-20T06:59:47;15.23;;;3.00;;
10896;SDS011;5501;51.176;6.470;2023-12-20T07:04:48;12.65;;;3.72;;
10896;SDS011;5501;51.176;6.470;2023-12-20T07:09:50;12.52;;;3.75;;
10896;SDS011;5501;51.176;6.470;2023-12-20T07:14:51;9.52;;;3.60;;
10896;SDS011;5501;51.176;6.470;2023-12-20T07:19:53;7.65;;;3.60;;
10896;SDS011;5501;51.176;6.470;2023-12-20T07:24:55;16.38;;;3.30;;
10896;SDS011;5501;51.176;6.470;2023-12-20T07:29:56;10.90;;;4.07;;
10896;SDS011;5501;51.176;6.470;2023-12-20T07:34:59;5.60;;;2.80;;
10896;SDS011;5501;51.176;6.470;2023-12-20T07:40:01;6.05;;;2.20;;
10896;SDS011;5501;51.176;6.470;2023-12-20T07:45:03;17.38;;;4.07;;
10896;SDS011;5501;51.176;6.470;2023-12-20T07:50:05;11.00;;;3.80;;
10896;SDS011;5501;51.176;6.470;2023-12-20T07:55:09;15.60;;;4.05;;
10896;SDS011;5501;51.176;6.470;2023-12-20T08:00:11;9.88;;;2.92;;
10896;SDS011;5501;51.176;6.470;2023-12-20T08:05:13;12.25;;;3.03;;
10896;SDS011;5501;51.176;6.470;2023-12-20T08:10:17;9.70;;;2.70;;
10896;SDS011;5501;51.176;6.470;2023-12-20T08:15:20;12.95;;;3.55;;
10896;SDS011;5501;51.176;6.470;2023-12-20T08:20:22;12.88;;;3.45;;
10896;SDS011;5501;51.176;6.470;2023-12-20T08:25:37;7.85;;;2.78;;
10896;SDS011;5501;51.176;6.470;2023-12-20T08:30:38;8.02;;;2.70;;
10896;SDS011;5501;51.176;6.470;2023-12-20T08:35:40;5.43;;;2.83;;
10896;SDS011;5501;51.176;6.470;2023-12-20T08:40:42;13.73;;;3.47;;
10896;SDS011;5501;51.176;6.470;2023-12-20T08:45:45;6.53;;;2.72;;
10896;SDS011;5501;51.176;6.470;2023-12-20T08:50:47;11.52;;;2.92;;
10896;SDS011;5501;51.176;6.470;2023-12-20T08:55:51;12.10;;;3.00;;
10896;SDS011;5501;51.176;6.470;2023-12-20T09:00:52;25.30;;;3.60;;
10896;SDS011;5501;51.176;6.470;2023-12-20T09:05:54;12.15;;;2.92;;
10896;SDS011;5501;51.176;6.470;2023-12-20T09:10:55;13.20;;;3.05;;
10896;SDS011;5501;51.176;6.470;2023-12-20T09:15:57;14.20;;;2.75;;
10896;SDS011;5501;51.176;6.470;2023-12-20T09:20:59;9.00;;;2.05;;
10896;SDS011;5501;51.176;6.470;2023-12-20T09:26:01;9.30;;;2.65;;
10896;SDS011;5501;51.176;6.470;2023-12-20T09:31:03;5.25;;;2.83;;
10896;SDS011;5501;51.176;6.470;2023-12-20T09:36:06;9.50;;;2.78;;
10896;SDS011;5501;51.176;6.470;2023-12-20T09:41:08;9.30;;;2.05;;
10896;SDS011;5501;51.176;6.470;2023-12-20T09:46:12;16.15;;;3.55;;
10896;SDS011;5501;51.176;6.470;2023-12-20T09:51:20;8.25;;;2.00;;
10896;SDS011;5501;51.176;6.470;2023-12-20T09:56:23;7.97;;;2.65;;
10896;SDS011;5501;51.176;6.470;2023-12-20T10:01:26;5.93;;;1.88;;
10896;SDS011;5501;51.176;6.470;2023-12-20T10:06:30;9.48;;;2.60;;
10896;SDS011;5501;51.176;6.470;2023-12-20T10:11:34;15.52;;;2.42;;
10896;SDS011;5501;51.176;6.470;2023-12-20T10:16:38;10.27;;;2.05;;
10896;SDS011;5501;51.176;6.470;2023-12-20T10:21:41;5.93;;;2.25;;
10896;SDS011;5501;51.176;6.470;2023-12-20T10:26:42;11.57;;;1.92;;
10896;SDS011;5501;51.176;6.470;2023-12-20T10:31:46;10.90;;;2.90;;
10896;SDS011;5501;51.176;6.470;2023-12-20T10:36:48;3.25;;;1.50;;
10896;SDS011;5501;51.176;6.470;2023-12-20T10:41:49;7.70;;;2.80;;
10896;SDS011;5501;51.176;6.470;2023-12-20T10:46:51;9.00;;;2.10;;
10896;SDS011;5501;51.176;6.470;2023-12-20T10:51:59;11.85;;;2.40;;
10896;SDS011;5501;51.176;6.470;2023-12-20T10:57:05;5.78;;;2.00;;
10896;SDS011;5501;51.176;6.470;2023-12-20T11:02:07;6.57;;;2.30;;
10896;SDS011;5501;51.176;6.470;2023-12-20T11:12:54;7.10;;;2.20;;
10896;SDS011;5501;51.176;6.470;2023-12-20T11:18:30;8.88;;;2.47;;
10896;SDS011;5501;51.176;6.470;2023-12-20T11:23:33;5.85;;;2.08;;
10896;SDS011;5501;51.176;6.470;2023-12-20T11:28:36;10.25;;;2.38;;
10896;SDS011;5501;51.176;6.470;2023-12-20T11:33:37;14.80;;;2.88;;
10896;SDS011;5501;51.176;6.470;2023-12-20T11:44:14;7.57;;;1.85;;
10896;SDS011;5501;51.176;6.470;2023-12-20T11:49:19;5.47;;;1.70;;
10896;SDS011;5501;51.176;6.470;2023-12-20T11:54:24;7.38;;;2.08;;
10896;SDS011;5501;51.176;6.470;2023-12-20T11:59:26;9.45;;;2.35;;
10896;SDS011;5501;51.176;6.470;2023-12-20T12:04:27;9.18;;;2.08;;
10896;SDS011;5501;51.176;6.470;2023-12-20T12:09:29;5.68;;;2.20;;
10896;SDS011;5501;51.176;6.470;2023-12-20T12:14:31;6.47;;;2.28;;
10896;SDS011;5501;51.176;6.470;2023-12-20T12:19:33;11.43;;;3.33;;
10896;SDS011;5501;51.176;6.470;2023-12-20T12:24:38;8.35;;;2.17;;
10896;SDS011;5501;51.176;6.470;2023-12-20T12:30:02;5.97;;;1.98;;
10896;SDS011;5501;51.176;6.470;2023-12-20T12:35:05;7.00;;;2.53;;
10896;SDS011;5501;51.176;6.470;2023-12-20T12:40:11;9.80;;;3.17;;
10896;SDS011;5501;51.176;6.470;2023-12-20T12:45:14;7.82;;;3.88;;
10896;SDS011;5501;51.176;6.470;2023-12-20T12:50:17;6.35;;;1.92;;
10896;SDS011;5501;51.176;6.470;2023-12-20T12:55:19;9.38;;;2.53;;
10896;SDS011;5501;51.176;6.470;2023-12-20T13:00:21;10.20;;;2.40;;
10896;SDS011;5501;51.176;6.470;2023-12-20T13:05:23;11.32;;;3.53;;
10896;SDS011;5501;51.176;6.470;2023-12-20T13:10:24;8.02;;;3.38;;
10896;SDS011;5501;51.176;6.470;2023-12-20T13:15:26;7.75;;;2.45;;
10896;SDS011;5501;51.176;6.470;2023-12-20T13:20:28;10.43;;;2.25;;
10896;SDS011;5501;51.176;6.470;2023-12-20T13:25:29;8.77;;;2.85;;
10896;SDS011;5501;51.176;6.470;2023-12-20T13:30:32;8.05;;;2.33;;
10896;SDS011;5501;51.176;6.470;2023-12-20T13:35:34;7.43;;;2.40;;
10896;SDS011;5501;51.176;6.470;2023-12-20T13:40:36;5.53;;;2.47;;
10896;SDS011;5501;51.176;6.470;2023-12-20T13:45:37;4.20;;;1.60;;
10896;SDS011;5501;51.176;6.470;2023-12-20T13:50:39;5.30;;;2.60;;
10896;SDS011;5501;51.176;6.470;2023-12-20T13:55:40;8.88;;;2.78;;
10896;SDS011;5501;51.176;6.470;2023-12-20T14:00:42;6.50;;;2.22;;
10896;SDS011;5501;51.176;6.470;2023-12-20T14:05:44;3.45;;;2.53;;
10896;SDS011;5501;51.176;6.470;2023-12-20T14:10:45;4.60;;;1.90;;
10896;SDS011;5501;51.176;6.470;2023-12-20T14:15:47;11.50;;;3.05;;
10896;SDS011;5501;51.176;6.470;2023-12-20T14:20:50;12.20;;;3.13;;
10896;SDS011;5501;51.176;6.470;2023-12-20T14:25:52;8.77;;;2.78;;
10896;SDS011;5501;51.176;6.470;2023-12-20T14:30:53;4.28;;;2.90;;
10896;SDS011;5501;51.176;6.470;2023-12-20T14:35:55;8.82;;;2.78;;
10896;SDS011;5501;51.176;6.470;2023-12-20T14:40:57;7.05;;;3.05;;
10896;SDS011;5501;51.176;6.470;2023-12-20T14:45:58;12.70;;;2.40;;
10896;SDS011;5501;51.176;6.470;2023-12-20T14:51:00;7.35;;;2.58;;
10896;SDS011;5501;51.176;6.470;2023-12-20T14:56:02;12.75;;;3.33;;
10896;SDS011;5501;51.176;6.470;2023-12-20T15:01:04;6.75;;;2.83;;
10896;SDS011;5501;51.176;6.470;2023-12-20T15:06:08;7.10;;;2.85;;
10896;SDS011;5501;51.176;6.470;2023-12-20T15:11:13;3.35;;;2.40;;
10896;SDS011;5501;51.176;6.470;2023-12-20T15:16:15;11.60;;;3.63;;
10896;SDS011;5501;51.176;6.470;2023-12-20T15:21:17;5.53;;;3.13;;
10896;SDS011;5501;51.176;6.470;2023-12-20T15:26:19;3.50;;;2.28;;
10896;SDS011;5501;51.176;6.470;2023-12-20T15:31:21;4.28;;;2.55;;
10896;SDS011;5501;51.176;6.470;2023-12-20T15:36:27;11.90;;;2.47;;
10896;SDS011;5501;51.176;6.470;2023-12-20T15:41:29;6.70;;;3.25;;
10896;SDS011;5501;51.176;6.470;2023-12-20T15:46:31;7.38;;;2.97;;
10896;SDS011;5501;51.176;6.470;2023-12-20T15:51:32;7.75;;;3.03;;
10896;SDS011;5501;51.176;6.470;2023-12-20T15:56:35;7.10;;;2.75;;
10896;SDS011;5501;51.176;6.470;2023-12-20T16:01:39;6.75;;;2.70;;
10896;SDS011;5501;51.176;6.470;2023-12-20T16:06:40;7.63;;;2.95;;
10896;SDS011;5501;51.176;6.470;2023-12-20T16:11:42;4.45;;;2.53;;
10896;SDS011;5501;51.176;6.470;2023-12-20T16:16:46;5.93;;;3.00;;
10896;SDS011;5501;51.176;6.470;2023-12-20T16:21:48;11.52;;;3.30;;
10896;SDS011;5501;51.176;6.470;2023-12-20T16:26:49;4.07;;;3.20;;
10896;SDS011;5501;51.176;6.470;2023-12-20T16:31:51;8.13;;;3.40;;
10896;SDS011;5501;51.176;6.470;2023-12-20T16:36:53;17.58;;;3.10;;
10896;SDS011;5501;51.176;6.470;2023-12-20T16:41:56;20.00;;;3.70;;
10896;SDS011;5501;51.176;6.470;2023-12-20T16:46:58;5.38;;;2.92;;
10896;SDS011;5501;51.176;6.470;2023-12-20T16:51:59;4.82;;;3.10;;
10896;SDS011;5501;51.176;6.470;2023-12-20T16:57:04;12.98;;;3.50;;
10896;SDS011;5501;51.176;6.470;2023-12-20T17:02:08;8.73;;;3.40;;
10896;SDS011;5501;51.176;6.470;2023-12-20T17:07:10;11.55;;;4.05;;
10896;SDS011;5501;51.176;6.470;2023-12-20T17:12:12;9.55;;;4.72;;
10896;SDS011;5501;51.176;6.470;2023-12-20T17:17:13;9.25;;;3.53;;
10896;SDS011;5501;51.176;6.470;2023-12-20T17:22:15;5.30;;;2.97;;
10896;SDS011;5501;51.176;6.470;2023-12-20T17:27:16;16.50;;;4.07;;
10896;SDS011;5501;51.176;6.470;2023-12-20T17:32:18;10.07;;;3.22;;
10896;SDS011;5501;51.176;6.470;2023-12-20T17:37:19;15.65;;;3.72;;
10896;SDS011;5501;51.176;6.470;2023-12-20T17:42:21;11.32;;;3.15;;
10896;SDS011;5501;51.176;6.470;2023-12-20T17:47:23;15.90;;;4.00;;
10896;SDS011;5501;51.176;6.470;2023-12-20T17:52:24;10.55;;;3.60;;
10896;SDS011;5501;51.176;6.470;2023-12-20T17:57:26;6.50;;;3.05;;
10896;SDS011;5501;51.176;6.470;2023-12-20T18:02:28;8.52;;;3.00;;
10896;SDS011;5501;51.176;6.470;2023-12-20T18:07:29;9.43;;;3.15;;
10896;SDS011;5501;51.176;6.470;2023-12-20T18:12:31;5.28;;;2.35;;
10896;SDS011;5501;51.176;6.470;2023-12-20T18:17:35;9.15;;;2.90;;
10896;SDS011;5501;51.176;6.470;2023-12-20T18:22:36;7.80;;;3.03;;
10896;SDS011;5501;51.176;6.470;2023-12-20T18:27:39;12.10;;;2.72;;
10896;SDS011;5501;51.176;6.470;2023-12-20T18:32:41;10.15;;;3.35;;
10896;SDS011;5501;51.176;6.470;2023-12-20T18:37:43;7.80;;;2.78;;
10896;SDS011;5501;51.176;6.470;2023-12-20T18:42:45;10.07;;;3.53;;
10896;SDS011;5501;51.176;6.470;2023-12-20T18:47:47;9.65;;;3.05;;
10896;SDS011;5501;51.176;6.470;2023-12-20T18:52:49;8.02;;;2.92;;
10896;SDS011;5501;51.176;6.470;2023-12-20T18:57:50;13.50;;;3.72;;
10896;SDS011;5501;51.176;6.470;2023-12-20T19:02:52;14.32;;;3.78;;
10896;SDS011;5501;51.176;6.470;2023-12-20T19:07:55;10.75;;;3.47;;
10896;SDS011;5501;51.176;6.470;2023-12-20T19:12:57;11.15;;;2.97;;
10896;SDS011;5501;51.176;6.470;2023-12-20T19:17:58;10.18;;;2.67;;
10896;SDS011;5501;51.176;6.470;2023-12-20T19:23:00;6.53;;;2.67;;
10896;SDS011;5501;51.176;6.470;2023-12-20T19:28:02;11.73;;;3.03;;
10896;SDS011;5501;51.176;6.470;2023-12-20T19:33:04;11.38;;;3.65;;
10896;SDS011;5501;51.176;6.470;2023-12-20T19:38:06;3.78;;;2.38;;
10896;SDS011;5501;51.176;6.470;2023-12-20T19:43:07;10.70;;;3.60;;
10896;SDS011;5501;51.176;6.470;2023-12-20T19:48:09;10.15;;;3.58;;
10896;SDS011;5501;51.176;6.470;2023-12-20T19:53:11;7.70;;;3.50;;
10896;SDS011;5501;51.176;6.470;2023-12-20T19:58:13;11.10;;;4.20;;
10896;SDS011;5501;51.176;6.470;2023-12-20T20:03:14;8.25;;;3.33;;
10896;SDS011;5501;51.176;6.470;2023-12-20T20:08:16;5.38;;;2.75;;
10896;SDS011;5501;51.176;6.470;2023-12-20T20:13:18;6.93;;;2.85;;
10896;SDS011;5501;51.176;6.470;2023-12-20T20:18:22;7.55;;;3.53;;
10896;SDS011;5501;51.176;6.470;2023-12-20T20:23:23;14.98;;;3.20;;
10896;SDS011;5501;51.176;6.470;2023-12-20T20:28:25;8.77;;;2.95;;
10896;SDS011;5501;51.176;6.470;2023-12-20T20:33:29;5.97;;;2.80;;
10896;SDS011;5501;51.176;6.470;2023-12-20T20:38:31;10.57;;;2.80;;
10896;SDS011;5501;51.176;6.470;2023-12-20T20:43:33;3.90;;;2.72;;
10896;SDS011;5501;51.176;6.470;2023-12-20T20:48:35;8.90;;;2.75;;
10896;SDS011;5501;51.176;6.470;2023-12-20T20:53:51;6.95;;;2.92;;
10896;SDS011;5501;51.176;6.470;2023-12-20T20:59:08;7.05;;;2.65;;
10896;SDS011;5501;51.176;6.470;2023-12-20T21:04:10;5.22;;;2.60;;
10896;SDS011;5501;51.176;6.470;2023-12-20T21:09:12;7.28;;;2.80;;
10896;SDS011;5501;51.176;6.470;2023-12-20T21:14:13;8.45;;;2.75;;
10896;SDS011;5501;51.176;6.470;2023-12-20T21:19:16;6.45;;;2.63;;
10896;SDS011;5501;51.176;6.470;2023-12-20T21:24:19;6.60;;;2.95;;
10896;SDS011;5501;51.176;6.470;2023-12-20T21:29:21;12.95;;;2.90;;
10896;SDS011;5501;51.176;6.470;2023-12-20T21:34:22;6.95;;;2.83;;
10896;SDS011;5501;51.176;6.470;2023-12-20T21:39:24;11.05;;;3.00;;
10896;SDS011;5501;51.176;6.470;2023-12-20T21:44:28;11.75;;;2.75;;
10896;SDS011;5501;51.176;6.470;2023-12-20T21:49:30;3.53;;;2.53;;
10896;SDS011;5501;51.176;6.470;2023-12-20T21:54:31;8.27;;;2.90;;
10896;SDS011;5501;51.176;6.470;2023-12-20T21:59:33;5.38;;;3.00;;
10896;SDS011;5501;51.176;6.470;2023-12-20T22:04:36;10.07;;;2.92;;
10896;SDS011;5501;51.176;6.470;2023-12-20T22:09:37;3.67;;;2.50;;
10896;SDS011;5501;51.176;6.470;2023-12-20T22:14:39;11.45;;;3.08;;
10896;SDS011;5501;51.176;6.470;2023-12-20T22:19:41;8.65;;;3.97;;
10896;SDS011;5501;51.176;6.470;2023-12-20T22:24:42;9.30;;;3.80;;
10896;SDS011;5501;51.176;6.470;2023-12-20T22:29:44;8.95;;;2.78;;
10896;SDS011;5501;51.176;6.470;2023-12-20T22:34:47;5.50;;;3.17;;
10896;SDS011;5501;51.176;6.470;2023-12-20T22:39:49;3.63;;;2.40;;
10896;SDS011;5501;51.176;6.470;2023-12-20T22:44:50;7.78;;;3.30;;
10896;SDS011;5501;51.176;6.470;2023-12-20T22:49:55;4.78;;;2.72;;
10896;SDS011;5501;51.176;6.470;2023-12-20T22:54:57;4.07;;;2.70;;
10896;SDS011;5501;51.176;6.470;2023-12-20T22:59:59;2.70;;;2.45;;
10896;SDS011;5501;51.176;6.470;2023-12-20T23:05:01;4.38;;;2.38;;
10896;SDS011;5501;51.176;6.470;2023-12-20T23:10:40;7.65;;;3.10;;
10896;SDS011;5501;51.176;6.470;2023-12-20T23:15:42;7.30;;;2.50;;
10896;SDS011;5501;51.176;6.470;2023-12-20T23:20:43;6.63;;;2.20;;
10896;SDS011;5501;51.176;6.470;2023-12-20T23:25:45;3.75;;;2.38;;
10896;SDS011;5501;51.176;6.470;2023-12-20T23:30:47;5.97;;;2.47;;
10896;SDS011;5501;51.176;6.470;2023-12-20T23:35:48;3.78;;;2.60;;
10896;SDS011;5501;51.176;6.470;2023-12-20T23:40:50;7.40;;;2.92;;
10896;SDS011;5501;51.176;6.470;2023-12-20T23:45:52;6.68;;;2.65;;
10896;SDS011;5501;51.176;6.470;2023-12-20T23:50:53;4.60;;;2.97;;
10896;SDS011;5501;51.176;6.470;2023-12-20T23:55:55;4.78;;;3.00;;
